Time;durP1;ratioP1;P1;durP2;ratioP2;P2;SDS_P1;SDS_P2;PMS_P1;PMS_P2;Temp;Humidity;BMP_temperature;BMP_pressure;BME280_temperature;BME280_humidity;BME280_pressure;Samples;Min_cycle;Max_cycle;Signal;HPM_P1;HPM_P2
2021/10/04 00:01:05;;;;;;;;;;;14.40;49.60;;;;;;4315920;33;20001;-37
2021/10/04 00:03:31;;;;;;;;;;;14.40;49.60;;;;;;4328716;33;20073;-37
2021/10/04 00:05:57;;;;;;;;;;;14.40;49.60;;;;;;4328146;33;20391;-37
2021/10/04 00:08:23;;;;;;;;;;;14.30;49.60;;;;;;4328856;33;20126;-38
2021/10/04 00:10:50;;;;;;;;;;;14.40;49.70;;;;;;4353584;32;20040;-37
2021/10/04 00:13:16;;;;;;;;;;;14.40;49.70;;;;;;4360291;32;20378;-37
2021/10/04 00:15:42;;;;;;;;;;;14.40;49.70;;;;;;4360176;32;19966;-37
2021/10/04 00:18:08;;;;;;;;;;;14.30;49.70;;;;;;4346111;32;19967;-37
2021/10/04 00:20:34;;;;;;;;;;;14.30;49.80;;;;;;4360387;32;19989;-38
2021/10/04 00:23:01;;;;;;;;;;;14.30;49.90;;;;;;4360537;32;20396;-37
2021/10/04 00:25:27;;;;;;;;;;;14.30;49.90;;;;;;4360100;32;20091;-38
2021/10/04 00:27:53;;;;;;;;;;;14.30;49.90;;;;;;4346575;32;20022;-37
2021/10/04 00:30:19;;;;;;;;;;;14.30;49.90;;;;;;4359865;32;19990;-37
2021/10/04 00:32:47;;;;;;;;;;;14.30;50.00;;;;;;4346560;32;19974;-37
2021/10/04 00:35:14;;;;;;;;;;;14.40;50.00;;;;;;4360266;32;19970;-37
2021/10/04 00:37:40;;;;;;;;;;;14.40;49.90;;;;;;4360032;32;19969;-37
2021/10/04 00:40:09;;;;;;;;;;;14.40;49.80;;;;;;4360105;32;19967;-37
2021/10/04 00:42:35;;;;;;;;;;;14.50;49.70;;;;;;4346582;32;19977;-37
2021/10/04 00:45:01;;;;;;;;;;;14.50;50.20;;;;;;4359768;32;19994;-37
2021/10/04 00:47:27;;;;;;;;;;;14.50;49.30;;;;;;4361474;32;19959;-37
2021/10/04 00:49:53;;;;;;;;;;;14.50;49.30;;;;;;4375148;32;19958;-37
2021/10/04 00:52:19;;;;;;;;;;;14.60;49.30;;;;;;4363939;32;19966;-37
2021/10/04 00:54:45;;;;;;;;;;;14.60;49.30;;;;;;4373651;32;19973;-37
2021/10/04 00:57:12;;;;;;;;;;;14.70;49.30;;;;;;4370624;32;19970;-37
2021/10/04 00:59:38;;;;;;;;;;;14.70;49.20;;;;;;4359554;32;20375;-37
2021/10/04 01:02:04;;;;;;;;;;;14.80;49.20;;;;;;4359353;32;19962;-37
2021/10/04 01:04:30;;;;;;;;;;;14.80;49.10;;;;;;4359518;32;20382;-37
2021/10/04 01:06:57;;;;;;;;;;;14.90;48.90;;;;;;4359700;32;20042;-37
2021/10/04 01:09:23;;;;;;;;;;;14.90;48.60;;;;;;4363588;32;20153;-37
2021/10/04 01:11:51;;;;;;;;;;;14.90;48.60;;;;;;4374400;32;20001;-36
2021/10/04 01:14:17;;;;;;;;;;;14.90;48.50;;;;;;4360903;32;19970;-37
2021/10/04 01:16:43;;;;;;;;;;;14.90;48.60;;;;;;4341466;33;19984;-37
2021/10/04 01:19:10;;;;;;;;;;;15.00;48.70;;;;;;4342015;33;20380;-36
2021/10/04 01:21:36;;;;;;;;;;;15.00;48.60;;;;;;4341819;33;19979;-36
2021/10/04 01:24:04;;;;;;;;;;;15.00;48.60;;;;;;4341954;33;19970;-37
2021/10/04 01:26:30;;;;;;;;;;;14.90;48.40;;;;;;4342216;33;20542;-37
2021/10/04 01:28:56;;;;;;;;;;;14.90;48.50;;;;;;4341890;33;20034;-37
2021/10/04 01:31:22;;;;;;;;;;;14.80;48.40;;;;;;4342278;33;20407;-37
2021/10/04 01:33:53;;;;;;;;;;;14.80;48.60;;;;;;4341925;33;19974;-37
2021/10/04 01:36:20;;;;;;;;;;;14.80;48.70;;;;;;4341652;33;19990;-37
2021/10/04 01:38:46;;;;;;;;;;;14.80;48.80;;;;;;4341746;33;20099;-37
2021/10/04 01:41:12;;;;;;;;;;;14.80;48.80;;;;;;4329417;33;20458;-37
2021/10/04 01:43:39;;;;;;;;;;;14.80;48.60;;;;;;4341634;33;20176;-37
2021/10/04 01:46:05;;;;;;;;;;;14.80;48.60;;;;;;4341622;33;20010;-37
2021/10/04 01:48:31;;;;;;;;;;;14.80;48.70;;;;;;4343998;33;19959;-36
2021/10/04 01:50:58;;;;;;;;;;;14.70;48.70;;;;;;4344801;32;19982;-38
2021/10/04 01:53:24;;;;;;;;;;;14.70;48.80;;;;;;4342560;33;19959;-38
2021/10/04 01:55:50;;;;;;;;;;;14.70;48.90;;;;;;4344116;32;19970;-37
2021/10/04 01:58:16;;;;;;;;;;;14.60;49.00;;;;;;4343786;32;19969;-37
2021/10/04 02:00:43;;;;;;;;;;;14.60;49.10;;;;;;4342616;33;19982;-37
2021/10/04 02:03:09;;;;;;;;;;;14.60;49.30;;;;;;4344149;32;19989;-38
2021/10/04 02:05:35;;;;;;;;;;;14.60;49.30;;;;;;4330514;33;20043;-38
2021/10/04 02:08:02;;;;;;;;;;;14.60;49.30;;;;;;4344181;32;20371;-37
2021/10/04 02:10:36;;;;;;;;;;;14.50;49.40;;;;;;4326955;33;19975;-36
2021/10/04 02:13:03;;;;;;;;;;;14.50;49.60;;;;;;4327263;33;19979;-37
2021/10/04 02:15:29;;;;;;;;;;;14.50;49.70;;;;;;4326806;33;19979;-37
2021/10/04 02:17:55;;;;;;;;;;;14.50;49.70;;;;;;4326562;33;19978;-37
2021/10/04 02:20:24;;;;;;;;;;;14.50;49.80;;;;;;4314908;33;20076;-37
2021/10/04 02:22:50;;;;;;;;;;;14.40;49.90;;;;;;4326699;33;19982;-38
2021/10/04 02:25:16;;;;;;;;;;;14.40;50.00;;;;;;4326591;33;20065;-38
2021/10/04 02:27:43;;;;;;;;;;;14.40;50.20;;;;;;4326387;33;19971;-38
2021/10/04 02:30:20;;;;;;;;;;;14.30;50.20;;;;;;4326346;33;20094;-37
2021/10/04 02:32:46;;;;;;;;;;;14.30;50.30;;;;;;4325822;33;20428;-38
2021/10/04 02:35:13;;;;;;;;;;;14.30;50.40;;;;;;4326232;33;20490;-37
2021/10/04 02:37:39;;;;;;;;;;;14.30;50.40;;;;;;4326099;33;20120;-37
2021/10/04 02:40:06;;;;;;;;;;;14.30;50.60;;;;;;4326536;33;20010;-37
2021/10/04 02:42:32;;;;;;;;;;;14.30;50.70;;;;;;4326678;33;20042;-37
2021/10/04 02:44:59;;;;;;;;;;;14.30;50.80;;;;;;4325915;33;20519;-37
2021/10/04 02:47:25;;;;;;;;;;;14.30;50.80;;;;;;4331590;33;20033;-37
2021/10/04 02:49:51;;;;;;;;;;;14.30;50.80;;;;;;4343728;32;20388;-38
2021/10/04 02:52:18;;;;;;;;;;;14.30;50.90;;;;;;4343679;32;20063;-38
2021/10/04 02:54:44;;;;;;;;;;;14.30;51.10;;;;;;4355330;32;19994;-38
2021/10/04 02:57:11;;;;;;;;;;;14.20;51.00;;;;;;4355713;32;20435;-38
2021/10/04 02:59:38;;;;;;;;;;;14.20;51.20;;;;;;4355812;32;20466;-38
2021/10/04 03:02:04;;;;;;;;;;;14.10;51.30;;;;;;4355925;32;20087;-38
2021/10/04 03:04:30;;;;;;;;;;;14.10;51.40;;;;;;4343635;32;19967;-38
2021/10/04 03:06:56;;;;;;;;;;;14.10;51.50;;;;;;4356121;32;20046;-38
2021/10/04 03:09:23;;;;;;;;;;;14.10;51.50;;;;;;4355799;32;19981;-37
2021/10/04 03:11:49;;;;;;;;;;;14.10;51.60;;;;;;4355457;32;19993;-37
2021/10/04 03:14:15;;;;;;;;;;;14.10;51.80;;;;;;4355985;32;19971;-37
2021/10/04 03:16:41;;;;;;;;;;;14.10;51.70;;;;;;4355888;32;19959;-38
2021/10/04 03:19:08;;;;;;;;;;;14.10;51.70;;;;;;4355251;32;20046;-36
2021/10/04 03:21:34;;;;;;;;;;;14.10;51.70;;;;;;4356092;32;20364;-37
2021/10/04 03:24:00;;;;;;;;;;;14.10;51.60;;;;;;4355592;32;19974;-37
2021/10/04 03:26:26;;;;;;;;;;;14.10;51.80;;;;;;4345654;32;19978;-37
2021/10/04 03:28:52;;;;;;;;;;;14.10;51.80;;;;;;4343345;32;19971;-37
2021/10/04 03:31:19;;;;;;;;;;;14.10;51.80;;;;;;4343259;32;19974;-38
2021/10/04 03:33:45;;;;;;;;;;;14.10;51.80;;;;;;4342889;32;19983;-37
2021/10/04 03:36:11;;;;;;;;;;;14.10;52.00;;;;;;4343039;32;20427;-38
2021/10/04 03:38:37;;;;;;;;;;;14.10;52.10;;;;;;4343324;32;19971;-38
2021/10/04 03:41:04;;;;;;;;;;;14.10;52.00;;;;;;4343398;32;19971;-38
2021/10/04 03:43:30;;;;;;;;;;;14.10;52.10;;;;;;4340568;33;20511;-38
2021/10/04 03:45:56;;;;;;;;;;;14.10;52.20;;;;;;4343395;33;19991;-38
2021/10/04 03:48:22;;;;;;;;;;;14.10;52.00;;;;;;4343200;33;20052;-37
2021/10/04 03:50:48;;;;;;;;;;;14.10;51.90;;;;;;4330720;33;19970;-38
2021/10/04 03:53:15;;;;;;;;;;;14.10;51.90;;;;;;4342878;33;19970;-38
2021/10/04 03:55:41;;;;;;;;;;;14.20;51.80;;;;;;4331003;33;19986;-38
2021/10/04 03:58:07;;;;;;;;;;;14.20;51.50;;;;;;4343524;33;20434;-38
2021/10/04 04:00:34;;;;;;;;;;;14.20;51.30;;;;;;4330684;33;19962;-38
2021/10/04 04:03:00;;;;;;;;;;;14.30;51.30;;;;;;4343042;33;20443;-38
2021/10/04 04:05:26;;;;;;;;;;;14.30;50.90;;;;;;4342627;33;20390;-38
2021/10/04 04:07:52;;;;;;;;;;;14.30;50.90;;;;;;4342948;33;20030;-37
2021/10/04 04:10:18;;;;;;;;;;;14.40;51.10;;;;;;4330606;33;19983;-38
2021/10/04 04:12:45;;;;;;;;;;;14.40;50.90;;;;;;4342655;33;19990;-37
2021/10/04 04:15:12;;;;;;;;;;;14.40;50.70;;;;;;4356907;32;20006;-37
2021/10/04 04:17:38;;;;;;;;;;;14.50;50.80;;;;;;4370299;32;19973;-38
2021/10/04 04:20:05;;;;;;;;;;;14.50;50.60;;;;;;4374724;32;20048;-37
2021/10/04 04:22:34;;;;;;;;;;;14.60;50.50;;;;;;4374873;32;20070;-38
2021/10/04 04:25:00;;;;;;;;;;;14.70;50.30;;;;;;4374764;32;19998;-38
2021/10/04 04:27:26;;;;;;;;;;;14.70;49.80;;;;;;4374661;32;19958;-37
2021/10/04 04:29:53;;;;;;;;;;;14.80;49.70;;;;;;4374980;32;19985;-37
2021/10/04 04:32:19;;;;;;;;;;;14.80;49.40;;;;;;4375059;32;19969;-38
2021/10/04 04:34:45;;;;;;;;;;;14.90;49.40;;;;;;4374674;32;19962;-36
2021/10/04 04:37:12;;;;;;;;;;;15.00;49.20;;;;;;4374429;32;19970;-37
2021/10/04 04:39:38;;;;;;;;;;;15.10;49.10;;;;;;4375123;32;20057;-37
2021/10/04 04:42:06;;;;;;;;;;;15.20;48.90;;;;;;4374396;32;19962;-37
2021/10/04 04:44:32;;;;;;;;;;;15.30;48.90;;;;;;4374916;32;19990;-37
2021/10/04 04:46:58;;;;;;;;;;;15.50;48.50;;;;;;4363957;32;19967;-37
2021/10/04 04:49:26;;;;;;;;;;;15.60;47.80;;;;;;4359646;32;19955;-44
2021/10/04 04:51:53;;;;;;;;;;;15.70;47.50;;;;;;4359535;32;20056;-37
2021/10/04 04:54:20;;;;;;;;;;;15.80;47.00;;;;;;4312680;33;20020;-38
2021/10/04 04:56:46;;;;;;;;;;;15.90;47.00;;;;;;4312189;33;20007;-38
2021/10/04 04:59:13;;;;;;;;;;;16.00;46.70;;;;;;4312767;33;19971;-37
2021/10/04 05:01:39;;;;;;;;;;;16.10;46.60;;;;;;4313013;33;19972;-37
2021/10/04 05:04:05;;;;;;;;;;;16.20;46.30;;;;;;4312701;33;20431;-39
2021/10/04 05:06:31;;;;;;;;;;;16.30;46.00;;;;;;4312824;33;20031;-38
2021/10/04 05:08:58;;;;;;;;;;;16.50;45.90;;;;;;4312328;33;19968;-38
2021/10/04 05:11:24;;;;;;;;;;;16.50;45.30;;;;;;4312541;33;20499;-37
2021/10/04 05:13:50;;;;;;;;;;;16.60;45.40;;;;;;4312392;33;20417;-38
2021/10/04 05:16:17;;;;;;;;;;;16.70;45.10;;;;;;4312629;33;20152;-38
2021/10/04 05:18:43;;;;;;;;;;;16.80;44.80;;;;;;4312771;33;20047;-37
2021/10/04 05:21:09;;;;;;;;;;;16.90;44.70;;;;;;4312618;33;20076;-38
2021/10/04 05:23:36;;;;;;;;;;;17.10;44.80;;;;;;4312366;33;19967;-37
2021/10/04 05:26:02;;;;;;;;;;;17.30;44.60;;;;;;4349644;32;19978;-38
2021/10/04 05:28:28;;;;;;;;;;;17.60;44.00;;;;;;4359333;32;19976;-37
2021/10/04 05:30:55;;;;;;;;;;;17.80;43.40;;;;;;4359038;32;19966;-37
2021/10/04 05:33:21;;;;;;;;;;;17.80;41.50;;;;;;4359389;32;19966;-37
2021/10/04 05:35:47;;;;;;;;;;;17.90;41.80;;;;;;4358971;32;20016;-37
2021/10/04 05:38:14;;;;;;;;;;;17.90;42.00;;;;;;4359453;32;20446;-38
2021/10/04 05:40:40;;;;;;;;;;;18.00;41.60;;;;;;4359244;32;20390;-37
2021/10/04 05:43:06;;;;;;;;;;;18.10;41.00;;;;;;4358819;32;19996;-37
2021/10/04 05:45:32;;;;;;;;;;;18.10;41.10;;;;;;4360697;32;20059;-38
2021/10/04 05:47:58;;;;;;;;;;;18.20;41.70;;;;;;4373659;32;19969;-37
2021/10/04 05:50:25;;;;;;;;;;;18.30;40.70;;;;;;4374094;32;19994;-38
2021/10/04 05:52:52;;;;;;;;;;;18.30;40.50;;;;;;4373643;32;19962;-37
2021/10/04 05:55:18;;;;;;;;;;;18.40;40.80;;;;;;4374022;32;19965;-38
2021/10/04 05:57:45;;;;;;;;;;;18.40;40.30;;;;;;4374057;32;20000;-38
2021/10/04 06:00:12;;;;;;;;;;;18.40;39.00;;;;;;4373755;32;20432;-38
2021/10/04 06:02:39;;;;;;;;;;;18.40;39.60;;;;;;4373736;32;19967;-37
2021/10/04 06:05:06;;;;;;;;;;;18.50;39.50;;;;;;4373548;32;19977;-38
2021/10/04 06:07:32;;;;;;;;;;;18.50;39.30;;;;;;4373429;32;19972;-36
2021/10/04 06:09:58;;;;;;;;;;;18.50;38.00;;;;;;4359772;32;19962;-37
2021/10/04 06:12:26;;;;;;;;;;;18.50;38.30;;;;;;4347129;32;19978;-37
2021/10/04 06:14:56;;;;;;;;;;;18.40;38.10;;;;;;4373288;32;19988;-38
2021/10/04 06:17:22;;;;;;;;;;;18.40;38.00;;;;;;4373096;32;20038;-37
2021/10/04 06:19:49;;;;;;;;;;;18.50;38.10;;;;;;4373415;32;20347;-37
2021/10/04 06:22:15;;;;;;;;;;;18.60;36.80;;;;;;4360005;32;20136;-38
2021/10/04 06:24:41;;;;;;;;;;;18.60;36.70;;;;;;4373660;32;20008;-38
2021/10/04 06:27:08;;;;;;;;;;;18.60;36.90;;;;;;4359707;32;20090;-37
2021/10/04 06:29:34;;;;;;;;;;;18.80;36.70;;;;;;4373370;32;20069;-38
2021/10/04 06:32:00;;;;;;;;;;;18.90;36.40;;;;;;4372999;32;19958;-38
2021/10/04 06:34:26;;;;;;;;;;;19.00;35.60;;;;;;4373530;32;19969;-37
2021/10/04 06:36:52;;;;;;;;;;;19.00;34.60;;;;;;4359222;32;20082;-38
2021/10/04 06:39:19;;;;;;;;;;;19.10;34.40;;;;;;4373267;32;19974;-38
2021/10/04 06:41:45;;;;;;;;;;;19.10;34.20;;;;;;4359642;32;20001;-37
2021/10/04 06:44:11;;;;;;;;;;;19.10;34.60;;;;;;4373053;32;19965;-37
2021/10/04 06:46:37;;;;;;;;;;;19.10;34.40;;;;;;4364538;32;19977;-37
2021/10/04 06:49:04;;;;;;;;;;;19.20;34.80;;;;;;4358085;32;20069;-37
2021/10/04 06:51:30;;;;;;;;;;;19.30;34.70;;;;;;4358116;32;19970;-37
2021/10/04 06:53:57;;;;;;;;;;;19.40;34.00;;;;;;4357629;32;20382;-38
2021/10/04 06:56:23;;;;;;;;;;;19.60;33.70;;;;;;4358215;32;19962;-37
2021/10/04 06:58:49;;;;;;;;;;;19.70;34.00;;;;;;4299064;33;19995;-37
2021/10/04 07:01:16;;;;;;;;;;;19.80;33.10;;;;;;4311689;33;20101;-38
2021/10/04 07:03:42;;;;;;;;;;;19.90;32.50;;;;;;4311190;33;19979;-37
2021/10/04 07:06:09;;;;;;;;;;;19.90;32.60;;;;;;4296615;33;20057;-37
2021/10/04 07:08:35;;;;;;;;;;;20.00;32.80;;;;;;4297003;33;20147;-38
2021/10/04 07:11:01;;;;;;;;;;;20.00;32.20;;;;;;4296701;33;20059;-38
2021/10/04 07:13:27;;;;;;;;;;;20.10;32.10;;;;;;4296892;33;19968;-38
2021/10/04 07:15:54;;;;;;;;;;;20.00;31.60;;;;;;4296868;33;20440;-37
2021/10/04 07:18:20;;;;;;;;;;;20.10;31.20;;;;;;4297131;33;20475;-38
2021/10/04 07:20:46;;;;;;;;;;;20.10;31.30;;;;;;4300333;33;20439;-37
2021/10/04 07:23:13;;;;;;;;;;;20.00;30.60;;;;;;4299386;33;19968;-37
2021/10/04 07:25:39;;;;;;;;;;;19.90;30.60;;;;;;4299957;33;20544;-37
2021/10/04 07:28:05;;;;;;;;;;;19.90;31.20;;;;;;4299437;33;19963;-37
2021/10/04 07:30:34;;;;;;;;;;;20.00;30.70;;;;;;4334421;33;20547;-38
2021/10/04 07:33:01;;;;;;;;;;;20.00;29.60;;;;;;4343364;33;20008;-38
2021/10/04 07:35:28;;;;;;;;;;;20.10;30.10;;;;;;4331245;33;19971;-37
2021/10/04 07:37:54;;;;;;;;;;;20.30;30.50;;;;;;4357303;32;19977;-37
2021/10/04 07:40:22;;;;;;;;;;;20.50;30.40;;;;;;4360569;32;20061;-37
2021/10/04 07:42:49;;;;;;;;;;;20.70;29.70;;;;;;4360712;32;19970;-37
2021/10/04 07:45:15;;;;;;;;;;;20.90;29.20;;;;;;4360448;32;19975;-39
2021/10/04 07:47:42;;;;;;;;;;;21.10;28.80;;;;;;4375560;32;20377;-37
2021/10/04 07:50:10;;;;;;;;;;;21.30;28.60;;;;;;4375353;32;20063;-37
2021/10/04 07:52:37;;;;;;;;;;;21.40;27.80;;;;;;4375560;32;20046;-37
2021/10/04 07:55:05;;;;;;;;;;;21.40;27.20;;;;;;4375656;32;20059;-38
2021/10/04 07:57:31;;;;;;;;;;;21.40;27.00;;;;;;4375646;32;20350;-37
2021/10/04 07:59:57;;;;;;;;;;;21.30;27.00;;;;;;4375203;32;20061;-38
2021/10/04 08:02:23;;;;;;;;;;;21.20;27.10;;;;;;4375366;32;19989;-38
2021/10/04 08:04:50;;;;;;;;;;;21.10;27.00;;;;;;4375459;32;19990;-39
2021/10/04 08:07:16;;;;;;;;;;;20.90;26.90;;;;;;4375206;32;20078;-38
2021/10/04 08:09:42;;;;;;;;;;;20.70;27.40;;;;;;4375088;32;19997;-37
2021/10/04 08:12:09;;;;;;;;;;;20.70;27.70;;;;;;4374985;32;20098;-37
2021/10/04 08:14:36;;;;;;;;;;;20.70;27.50;;;;;;4375475;32;19969;-37
2021/10/04 08:17:03;;;;;;;;;;;20.80;27.70;;;;;;4361048;32;20038;-38
2021/10/04 08:19:29;;;;;;;;;;;20.90;27.90;;;;;;4374632;32;19965;-37
2021/10/04 08:21:55;;;;;;;;;;;21.00;27.20;;;;;;4375659;32;19981;-46
2021/10/04 08:24:22;;;;;;;;;;;21.10;27.10;;;;;;4375031;32;20455;-38
2021/10/04 08:26:48;;;;;;;;;;;21.20;26.50;;;;;;4374825;32;20094;-38
2021/10/04 08:29:15;;;;;;;;;;;21.10;26.20;;;;;;4360839;32;20001;-38
2021/10/04 08:31:41;;;;;;;;;;;21.10;26.30;;;;;;4374266;32;20005;-37
2021/10/04 08:34:07;;;;;;;;;;;21.00;26.00;;;;;;4374831;32;19965;-37
2021/10/04 08:36:34;;;;;;;;;;;21.00;26.10;;;;;;4374692;32;20009;-37
2021/10/04 08:39:01;;;;;;;;;;;20.80;26.10;;;;;;4374630;32;20411;-37
2021/10/04 08:41:27;;;;;;;;;;;20.70;26.50;;;;;;4375251;32;19972;-38
2021/10/04 08:43:55;;;;;;;;;;;20.70;26.70;;;;;;4375123;32;19974;-36
2021/10/04 08:46:21;;;;;;;;;;;20.80;26.60;;;;;;4367898;32;19978;-37
2021/10/04 08:48:48;;;;;;;;;;;20.80;26.60;;;;;;4359821;32;20044;-37
2021/10/04 08:51:14;;;;;;;;;;;20.80;27.20;;;;;;4359860;32;19978;-37
2021/10/04 08:53:40;;;;;;;;;;;20.80;26.80;;;;;;4360100;32;19966;-38
2021/10/04 08:56:07;;;;;;;;;;;20.90;26.80;;;;;;4359524;32;19978;-37
2021/10/04 08:58:35;;;;;;;;;;;21.00;26.60;;;;;;4359506;32;19970;-37
2021/10/04 09:01:03;;;;;;;;;;;21.00;26.10;;;;;;4359259;32;19958;-36
2021/10/04 09:03:49;;;;;;;;;;;20.90;25.70;;;;;;4359665;32;20009;-37
2021/10/04 09:06:35;;;;;;;;;;;20.90;25.90;;;;;;4359491;32;20016;-37
2021/10/04 09:09:08;;;;;;;;;;;21.00;26.00;;;;;;4359681;32;19990;-37
2021/10/04 09:11:48;;;;;;;;;;;21.00;25.30;;;;;;4359306;32;19977;-37
2021/10/04 09:14:17;;;;;;;;;;;21.00;25.30;;;;;;4359441;32;20040;-38
2021/10/04 09:16:50;;;;;;;;;;;20.90;25.30;;;;;;4359347;32;19974;-38
2021/10/04 09:19:17;;;;;;;;;;;20.90;25.00;;;;;;4359055;32;20063;-37
2021/10/04 09:22:05;;;;;;;;;;;20.80;25.00;;;;;;4359578;32;19997;-38
2021/10/04 09:24:32;;;;;;;;;;;20.90;25.40;;;;;;4359184;32;20102;-38
2021/10/04 09:26:58;;;;;;;;;;;21.00;25.20;;;;;;4358964;32;20079;-39
2021/10/04 09:29:27;;;;;;;;;;;21.10;25.20;;;;;;4359306;32;19974;-37
2021/10/04 09:31:53;;;;;;;;;;;21.10;24.90;;;;;;4345870;32;19992;-38
2021/10/04 09:34:27;;;;;;;;;;;21.40;25.10;;;;;;4326503;33;20075;-37
2021/10/04 09:36:55;;;;;;;;;;;21.60;25.10;;;;;;4327069;33;19971;-38
2021/10/04 09:39:36;;;;;;;;;;;21.60;24.30;;;;;;4327189;33;19963;-37
2021/10/04 09:42:12;;;;;;;;;;;21.60;24.50;;;;;;4326942;33;20102;-37
2021/10/04 09:44:50;;;;;;;;;;;21.70;24.30;;;;;;4326606;33;20069;-38
2021/10/04 09:47:27;;;;;;;;;;;21.80;24.40;;;;;;4339362;33;20007;-37
2021/10/04 09:50:00;;;;;;;;;;;21.90;24.40;;;;;;4341504;33;20051;-37
2021/10/04 09:52:36;;;;;;;;;;;22.10;24.60;;;;;;4341966;33;19989;-38
2021/10/04 09:55:32;;;;;;;;;;;22.30;24.40;;;;;;4341615;33;20065;-38
2021/10/04 09:58:04;;;;;;;;;;;22.40;24.40;;;;;;4341147;33;20400;-37
2021/10/04 10:00:52;;;;;;;;;;;22.50;24.20;;;;;;4341285;33;19974;-38
2021/10/04 10:03:23;;;;;;;;;;;22.70;24.20;;;;;;4341076;33;20048;-37
2021/10/04 10:05:53;;;;;;;;;;;22.70;24.10;;;;;;4363473;32;19969;-37
2021/10/04 10:08:23;;;;;;;;;;;22.70;24.20;;;;;;4373425;32;20053;-37
2021/10/04 10:10:50;;;;;;;;;;;22.70;24.00;;;;;;4373367;32;20465;-37
2021/10/04 10:13:17;;;;;;;;;;;22.50;24.20;;;;;;4373689;32;19966;-36
2021/10/04 10:16:16;;;;;;;;;;;22.50;24.40;;;;;;4373163;32;19982;-37
2021/10/04 10:18:52;;;;;;;;;;;22.60;24.40;;;;;;4373404;32;20045;-37
2021/10/04 10:21:23;;;;;;;;;;;22.60;23.90;;;;;;4373223;32;19982;-37
2021/10/04 10:23:49;;;;;;;;;;;22.50;24.00;;;;;;4359702;32;19969;-37
2021/10/04 10:26:39;;;;;;;;;;;22.60;24.30;;;;;;4372926;32;19962;-37
2021/10/04 10:29:08;;;;;;;;;;;22.60;24.40;;;;;;4373373;32;19997;-38
2021/10/04 10:31:55;;;;;;;;;;;22.50;24.50;;;;;;4373152;32;19978;-37
2021/10/04 10:34:43;;;;;;;;;;;22.20;24.60;;;;;;4373343;32;20410;-38
2021/10/04 10:37:17;;;;;;;;;;;22.00;24.60;;;;;;4365713;32;19997;-38
2021/10/04 10:39:53;;;;;;;;;;;21.80;24.60;;;;;;4372967;32;19974;-38
2021/10/04 10:42:34;;;;;;;;;;;21.80;25.00;;;;;;4373571;32;19966;-36
2021/10/04 10:45:09;;;;;;;;;;;21.80;24.90;;;;;;4359950;32;19958;-39
2021/10/04 10:47:35;;;;;;;;;;;21.70;25.10;;;;;;4358346;32;20434;-38
2021/10/04 10:50:25;;;;;;;;;;;21.80;25.00;;;;;;4358395;32;19990;-37
2021/10/04 10:52:57;;;;;;;;;;;21.70;25.00;;;;;;4357641;32;19974;-38
2021/10/04 10:55:23;;;;;;;;;;;21.70;25.20;;;;;;4358128;32;19994;-38
2021/10/04 10:57:52;;;;;;;;;;;21.90;25.20;;;;;;4357904;32;19965;-38
2021/10/04 11:00:28;;;;;;;;;;;21.90;25.20;;;;;;4357945;32;20071;-38
2021/10/04 11:03:11;;;;;;;;;;;21.90;25.40;;;;;;4358434;32;19959;-39
2021/10/04 11:05:37;;;;;;;;;;;21.80;25.40;;;;;;4357984;32;19970;-37
2021/10/04 11:08:28;;;;;;;;;;;21.80;25.10;;;;;;4357811;32;19986;-36
2021/10/04 11:10:57;;;;;;;;;;;21.70;25.20;;;;;;4358044;32;19970;-37
2021/10/04 11:13:23;;;;;;;;;;;21.50;25.10;;;;;;4358076;32;20876;-37
2021/10/04 11:15:50;;;;;;;;;;;21.50;25.30;;;;;;4358384;32;20023;-37
2021/10/04 11:18:16;;;;;;;;;;;21.50;25.40;;;;;;4357796;32;19963;-38
2021/10/04 11:20:42;;;;;;;;;;;21.60;25.40;;;;;;4357729;32;19982;-37
2021/10/04 11:23:16;;;;;;;;;;;21.70;25.50;;;;;;4357788;32;20423;-38
2021/10/04 11:25:52;;;;;;;;;;;21.80;25.40;;;;;;4357857;32;19962;-37
2021/10/04 11:28:40;;;;;;;;;;;21.70;25.50;;;;;;4358014;32;19982;-37
2021/10/04 11:31:12;;;;;;;;;;;21.60;25.90;;;;;;4346021;32;20067;-38
2021/10/04 11:33:50;;;;;;;;;;;21.40;26.00;;;;;;4357580;32;20551;-38
2021/10/04 11:36:18;;;;;;;;;;;21.30;26.30;;;;;;4310957;33;20091;-36
2021/10/04 11:38:45;;;;;;;;;;;21.10;26.30;;;;;;4311040;33;19993;-37
2021/10/04 11:41:12;;;;;;;;;;;21.00;26.40;;;;;;4311227;33;20059;-37
2021/10/04 11:43:44;;;;;;;;;;;20.90;26.60;;;;;;4311154;33;19983;-38
2021/10/04 11:46:21;;;;;;;;;;;20.70;26.70;;;;;;4316550;33;20399;-36
2021/10/04 11:48:47;;;;;;;;;;;20.60;26.90;;;;;;4325501;33;20061;-37
2021/10/04 11:51:25;;;;;;;;;;;20.40;27.10;;;;;;4325798;33;20101;-37
2021/10/04 11:53:54;;;;;;;;;;;20.30;27.20;;;;;;4325954;33;19971;-38
2021/10/04 11:56:20;;;;;;;;;;;20.10;27.30;;;;;;4325815;33;20042;-38
2021/10/04 11:58:57;;;;;;;;;;;19.90;26.90;;;;;;4313320;33;20062;-37
2021/10/04 12:01:40;;;;;;;;;;;19.80;27.10;;;;;;4313736;33;19975;-38
2021/10/04 12:04:11;;;;;;;;;;;19.80;27.40;;;;;;4325452;33;20446;-38
2021/10/04 12:06:40;;;;;;;;;;;19.80;27.30;;;;;;4338501;32;19998;-38
2021/10/04 12:09:07;;;;;;;;;;;20.00;27.60;;;;;;4375450;32;19958;-37
2021/10/04 12:11:34;;;;;;;;;;;20.10;27.40;;;;;;4375437;32;19965;-37
2021/10/04 12:14:01;;;;;;;;;;;20.10;27.30;;;;;;4374990;32;20492;-37
2021/10/04 12:16:29;;;;;;;;;;;20.00;27.20;;;;;;4375048;32;19978;-38
2021/10/04 12:19:00;;;;;;;;;;;20.00;27.20;;;;;;4374926;32;19965;-39
2021/10/04 12:21:38;;;;;;;;;;;20.00;27.10;;;;;;4374868;32;20458;-39
2021/10/04 12:24:15;;;;;;;;;;;20.00;27.00;;;;;;4375097;32;19977;-38
2021/10/04 12:27:09;;;;;;;;;;;19.90;27.00;;;;;;4375020;32;19962;-38
2021/10/04 12:29:49;;;;;;;;;;;19.90;27.20;;;;;;4370178;32;19977;-37
2021/10/04 12:32:30;;;;;;;;;;;19.90;27.20;;;;;;4374948;32;19982;-37
2021/10/04 12:35:12;;;;;;;;;;;19.90;27.30;;;;;;4374682;32;20397;-37
2021/10/04 12:37:47;;;;;;;;;;;19.80;27.30;;;;;;4374850;32;20043;-38
2021/10/04 12:40:27;;;;;;;;;;;19.80;27.20;;;;;;4374860;32;20070;-38
2021/10/04 12:43:11;;;;;;;;;;;19.90;27.30;;;;;;4374521;32;20445;-38
2021/10/04 12:45:38;;;;;;;;;;;19.80;27.00;;;;;;4359326;32;19970;-38
2021/10/04 12:48:14;;;;;;;;;;;19.90;27.10;;;;;;4359801;32;19990;-38
2021/10/04 12:50:41;;;;;;;;;;;19.80;27.20;;;;;;4345569;32;19973;-38
2021/10/04 12:53:18;;;;;;;;;;;19.60;27.20;;;;;;4359478;32;19982;-37
2021/10/04 12:55:50;;;;;;;;;;;19.60;27.30;;;;;;4359306;32;19997;-38
2021/10/04 12:58:16;;;;;;;;;;;19.60;27.40;;;;;;4359219;32;20497;-38
2021/10/04 13:00:43;;;;;;;;;;;19.40;27.20;;;;;;4359205;32;20041;-38
2021/10/04 13:03:09;;;;;;;;;;;19.20;27.10;;;;;;4359781;32;19978;-37
2021/10/04 13:05:35;;;;;;;;;;;19.10;27.30;;;;;;4346224;32;19974;-37
2021/10/04 13:08:02;;;;;;;;;;;19.10;27.40;;;;;;4359421;32;19986;-37
2021/10/04 13:10:28;;;;;;;;;;;19.00;27.20;;;;;;4312006;33;19974;-37
2021/10/04 13:12:58;;;;;;;;;;;18.90;27.30;;;;;;4300471;33;20432;-38
2021/10/04 13:15:25;;;;;;;;;;;18.90;27.40;;;;;;4312424;33;19968;-38
2021/10/04 13:17:51;;;;;;;;;;;18.80;27.70;;;;;;4311705;33;20070;-38
2021/10/04 13:20:17;;;;;;;;;;;18.70;27.50;;;;;;4312698;33;19975;-38
2021/10/04 13:22:43;;;;;;;;;;;18.50;27.50;;;;;;4311869;33;19986;-37
2021/10/04 13:25:11;;;;;;;;;;;18.30;28.20;;;;;;4312240;33;20138;-38
2021/10/04 13:27:38;;;;;;;;;;;18.30;27.90;;;;;;4312360;33;20059;-37
2021/10/04 13:30:06;;;;;;;;;;;18.20;28.00;;;;;;4300027;33;19968;-37
2021/10/04 13:32:32;;;;;;;;;;;18.20;28.10;;;;;;4312179;33;20427;-38
2021/10/04 13:34:58;;;;;;;;;;;18.20;28.30;;;;;;4311899;33;19978;-37
2021/10/04 13:37:25;;;;;;;;;;;18.30;28.50;;;;;;4311972;33;19978;-38
2021/10/04 13:39:51;;;;;;;;;;;18.20;28.50;;;;;;4311529;33;20366;-37
2021/10/04 13:42:17;;;;;;;;;;;18.20;28.50;;;;;;4312160;33;19963;-38
2021/10/04 13:44:44;;;;;;;;;;;18.20;28.60;;;;;;4312102;33;19986;-38
2021/10/04 13:47:11;;;;;;;;;;;18.10;29.10;;;;;;4333009;32;20565;-37
2021/10/04 13:49:37;;;;;;;;;;;18.00;28.70;;;;;;4373446;32;19969;-38
2021/10/04 13:52:04;;;;;;;;;;;17.90;28.80;;;;;;4373285;32;20141;-39
2021/10/04 13:54:30;;;;;;;;;;;17.80;28.90;;;;;;4373518;32;19959;-37
2021/10/04 13:56:57;;;;;;;;;;;17.80;29.60;;;;;;4373639;32;19985;-38
2021/10/04 13:59:23;;;;;;;;;;;17.70;29.10;;;;;;4373747;32;20379;-38
2021/10/04 14:01:49;;;;;;;;;;;17.60;29.20;;;;;;4373583;32;19973;-38
2021/10/04 14:04:15;;;;;;;;;;;17.50;29.30;;;;;;4373585;32;20053;-37
2021/10/04 14:06:41;;;;;;;;;;;17.40;29.50;;;;;;4373749;32;19966;-38
2021/10/04 14:09:08;;;;;;;;;;;17.30;29.60;;;;;;4359235;32;19958;-36
2021/10/04 14:11:34;;;;;;;;;;;17.30;29.70;;;;;;4373763;32;20001;-37
2021/10/04 14:14:00;;;;;;;;;;;17.20;29.80;;;;;;4373684;32;19978;-38
2021/10/04 14:16:26;;;;;;;;;;;17.10;30.00;;;;;;4373045;32;20034;-38
2021/10/04 14:18:54;;;;;;;;;;;17.00;30.10;;;;;;4372690;32;20017;-37
2021/10/04 14:21:23;;;;;;;;;;;16.90;30.30;;;;;;4373236;32;19990;-38
2021/10/04 14:23:49;;;;;;;;;;;16.80;30.50;;;;;;4372923;32;20083;-36